createdAt,value
2019-05-21T00:00:10.893Z,14.10
2019-05-21T00:10:17.232Z,14.10
2019-05-21T00:20:23.398Z,14.00
2019-05-21T00:31:05.792Z,13.90
2019-05-21T00:51:37.498Z,13.50
2019-05-21T01:22:00.851Z,12.60
2019-05-21T02:52:56.415Z,12.70
2019-05-21T03:03:03.899Z,12.50
2019-05-21T03:13:09.596Z,12.50
2019-05-21T03:23:15.168Z,12.40
2019-05-21T03:33:20.674Z,12.10
2019-05-21T03:43:27.219Z,12.30
2019-05-21T03:53:32.709Z,12.40
2019-05-21T04:03:38.275Z,12.50
2019-05-21T04:13:43.874Z,12.50
2019-05-21T04:23:49.353Z,12.60
2019-05-21T04:33:54.833Z,12.70
2019-05-21T04:44:00.434Z,12.90
2019-05-21T04:54:05.986Z,12.90
2019-05-21T05:04:11.636Z,13.20
2019-05-21T05:14:17.471Z,13.50
2019-05-21T05:24:26.007Z,13.90
2019-05-21T05:34:31.740Z,14.10
2019-05-21T05:44:37.355Z,14.10
2019-05-21T05:54:42.891Z,14.50
2019-05-21T06:04:48.394Z,14.80
2019-05-21T06:14:53.945Z,15.00
2019-05-21T06:24:59.418Z,15.00
2019-05-21T06:35:06.733Z,15.40
2019-05-21T06:45:13.355Z,15.80
2019-05-21T06:55:18.960Z,16.20
2019-05-21T07:05:24.516Z,16.50
2019-05-21T07:15:30.091Z,16.70
2019-05-21T07:25:35.545Z,16.90
2019-05-21T07:35:41.121Z,17.10
2019-05-21T07:45:46.760Z,17.30
2019-05-21T07:55:52.248Z,17.50
2019-05-21T08:05:57.756Z,17.70
2019-05-21T08:16:03.358Z,17.70
2019-05-21T08:26:08.976Z,18.10
2019-05-21T08:36:14.690Z,18.60
2019-05-21T08:46:20.163Z,18.40
2019-05-21T08:56:25.668Z,18.60
2019-05-21T09:06:31.235Z,18.50
2019-05-21T09:16:37.120Z,18.60
2019-05-21T09:36:47.537Z,19.10
2019-05-21T09:46:53.246Z,18.80
2019-05-21T09:57:01.001Z,19.20
2019-05-21T10:07:06.492Z,19.00
2019-05-21T10:17:12.035Z,19.30
2019-05-21T10:27:17.652Z,19.50
2019-05-21T10:37:23.200Z,19.60
2019-05-21T10:47:28.716Z,19.70
2019-05-21T10:57:34.302Z,19.70
2019-05-21T11:07:40.018Z,19.80
2019-05-21T11:17:53.700Z,20.00
2019-05-21T11:27:52.995Z,20.20
2019-05-21T11:37:58.714Z,20.30
2019-05-21T11:48:04.434Z,20.10
2019-05-21T11:58:09.953Z,20.70
2019-05-21T12:08:15.524Z,20.70
2019-05-21T12:18:21.122Z,20.60
2019-05-21T12:28:26.600Z,20.90
2019-05-21T12:38:32.114Z,21.00
2019-05-21T12:48:37.727Z,20.90
2019-05-21T12:58:43.379Z,20.90
2019-05-21T13:08:49.061Z,21.00
2019-05-21T13:18:54.636Z,21.30
2019-05-21T13:29:00.155Z,21.20
2019-05-21T13:39:08.286Z,21.10
2019-05-21T13:49:13.764Z,21.20
2019-05-21T13:59:20.222Z,20.70
2019-05-21T14:09:25.866Z,20.30
2019-05-21T14:19:31.532Z,20.60
2019-05-21T14:29:41.922Z,20.40
2019-05-21T14:39:49.122Z,20.00
2019-05-21T14:49:54.676Z,19.90
2019-05-21T15:00:01.370Z,19.70
2019-05-21T15:20:17.138Z,19.50
2019-05-21T15:30:23.080Z,19.70
2019-05-21T15:40:28.739Z,19.70
2019-05-21T15:50:34.330Z,19.50
2019-05-21T16:00:39.806Z,19.60
2019-05-21T16:10:48.235Z,19.40
2019-05-21T16:20:53.788Z,19.00
2019-05-21T16:31:01.202Z,19.00
2019-05-21T16:41:07.040Z,18.70
2019-05-21T16:51:12.602Z,18.80
2019-05-21T17:01:19.276Z,18.80
2019-05-21T17:11:24.877Z,18.70
2019-05-21T17:21:30.356Z,18.70
2019-05-21T17:31:35.881Z,18.20
2019-05-21T17:41:41.576Z,18.20
2019-05-21T17:51:47.036Z,17.80
2019-05-21T18:01:54.321Z,17.60
2019-05-21T18:12:01.034Z,17.30
2019-05-21T18:22:12.045Z,16.40
2019-05-21T18:42:50.283Z,16.20
2019-05-21T18:52:56.284Z,15.60
2019-05-21T19:03:02.155Z,15.40
2019-05-21T19:13:08.645Z,15.20
2019-05-21T19:23:14.318Z,15.30
2019-05-21T19:33:20.113Z,15.40
2019-05-21T19:43:25.837Z,15.30
2019-05-21T19:53:32.793Z,15.00
2019-05-21T20:03:40.163Z,15.00
2019-05-21T20:13:46.033Z,14.90
2019-05-21T20:23:52.561Z,14.90
2019-05-21T20:33:58.433Z,14.70
2019-05-21T20:44:04.681Z,14.50
2019-05-21T20:54:11.642Z,14.70
2019-05-21T21:04:17.196Z,14.80
2019-05-21T21:14:24.455Z,14.70
2019-05-21T21:24:30.048Z,14.60
2019-05-21T21:34:35.541Z,14.60
2019-05-21T21:44:41.982Z,14.50
2019-05-21T21:54:47.715Z,14.50
2019-05-21T22:15:01.152Z,14.20
2019-05-21T22:25:07.658Z,14.30
2019-05-21T22:35:13.866Z,14.30
2019-05-21T22:45:19.596Z,14.20
2019-05-21T23:05:30.714Z,14.20
2019-05-21T23:15:37.744Z,14.30
2019-05-21T23:25:50.856Z,14.30
2019-05-21T23:35:57.114Z,14.50
2019-05-21T23:46:02.915Z,14.40
2019-05-21T23:56:08.416Z,14.40
